Salida, Colorado
Current Conditions -  °F | °C
As of 2:35 PM on Wednesday 26 Nov 2014 (Local Time) from KANK Reporting Station
Clear Clear  
Wind Chill: 52°   Ceiling: Unl
Heat Index: 52°   Visibility: 10mi
Dew Point: 23°   Wind: 22mph
Humidity: 33%   Direction: 260°W
Pressure: 30.31"   Gusts: 29mph
Location:  38.53°N, 106°W
Report Text: KANK 262135Z AUTO 26019G25KT 10SM CLR 11/M05 A3031 RMK AO1 T01091050
Loading
Personal Weather Stations






























Interactive Weather Map New forecast layout! Learn more

10-Day Weather Forecast

Advertisements
Track Severe Weather on mobile